Stewart International Airport
KSWF : rendu visible

Aérodrome :











RETROUVEZ-NOUS SUR...

 
LOGIN :

S'inscrire | Disclaimer

   EN    FR    IT 

 









Légende :    VFR   VFR Marginal   IFR   IFR Intensif   IFR Très Intensif
Visi : 
Plafond : 
>= 8 km
>= 3000ft
5 à 8 km
1000 à 3000 ft
1500m à 5 km
500 à 1000 ft
800 à 1500m
200 à 500 ft
< 800m
< 200 ft
Symboles :   Orages  Brouillard  Fortes neiges  Fortes précipitations  Vent > 20 kt






- Altitude de l'aérodrome : 491 ft
- Code IATA : SWF


KSWF - Stewart International

DERNIER METAR :
  • 242245Z 00000KT 10SM BKN100 04/M04 A3030

METARs EXPIRÉS :
  • 242145Z 00000KT 10SM BKN100 08/M07 A3028
  • 242045Z 00000KT 10SM BKN100 08/M05 A3029

TAF KSWF
Valide du 24 à 21h jusqu'au 26 à 00h UTC


242039Z 2421/2524 VRB05KT P6SM SCT060 SCT250
FM250800 07008KT P6SM SCT015 OVC030
FM251200 07010KT P6SM OVC015
TEMPO 2512/2515 -FZRA
FM251500 08010KT 2SM RA BR OVC008 WS020/12045KT
TEMPO 2517/2521 1SM +RA BR BKN005 AMD NOT SKED



MET'MAP, la Météo Aéronautique d'un coup d'oeil ! - Copyright ORBIFLY Décembre 2007 - Disclaimer

ORBIFLY MET'MAP TEAM :

Programmation & Développement : Alexandra Zaïnal
Sur une idée originale de : Baudouin d'Aumeries
Assistance à la programmation : Marc-Olivier Méhu
Soutien technique & logistique : Manuel Goepfert

Contact : metmap@orbifly.com




SOURCES & CREDITS :

   NOAA       Earth
Advisory